createdAt,value
2023-05-24T00:00:38.555Z,95248.00
2023-05-24T00:01:38.574Z,95246.00
2023-05-24T00:02:38.656Z,95242.00
2023-05-24T00:03:38.702Z,95244.00
2023-05-24T00:04:38.602Z,95242.00
2023-05-24T00:05:38.568Z,95246.00
2023-05-24T00:06:38.576Z,95242.00
2023-05-24T00:07:38.663Z,95242.00
2023-05-24T00:08:38.659Z,95244.00
2023-05-24T00:09:38.734Z,95240.00
2023-05-24T00:10:38.760Z,95240.00
2023-05-24T00:11:38.827Z,95236.00
2023-05-24T00:12:38.936Z,95236.00
2023-05-24T00:13:38.940Z,95238.00
2023-05-24T00:14:38.961Z,95236.00
2023-05-24T00:15:39.011Z,95240.00
2023-05-24T00:16:39.088Z,95238.00
2023-05-24T00:17:39.153Z,95232.00
2023-05-24T00:18:39.160Z,95234.00
2023-05-24T00:19:39.183Z,95234.00
2023-05-24T00:20:39.421Z,95234.00
2023-05-24T00:21:39.229Z,95236.00
2023-05-24T00:22:39.227Z,95234.00
2023-05-24T00:23:39.259Z,95236.00
2023-05-24T00:24:39.307Z,95234.00
2023-05-24T00:25:39.384Z,95238.00
2023-05-24T00:26:39.425Z,95238.00
2023-05-24T00:27:39.509Z,95238.00
2023-05-24T00:28:39.637Z,95234.00
2023-05-24T00:29:39.682Z,95238.00
2023-05-24T00:30:39.874Z,95236.00
2023-05-24T00:31:39.819Z,95238.00
2023-05-24T00:32:39.812Z,95240.00
2023-05-24T00:33:39.853Z,95236.00
2023-05-24T00:34:39.909Z,95234.00
2023-05-24T00:35:39.992Z,95234.00
2023-05-24T00:36:40.046Z,95236.00
2023-05-24T00:37:40.136Z,95234.00
2023-05-24T00:38:40.175Z,95232.00
2023-05-24T00:39:40.221Z,95234.00
2023-05-24T00:40:40.363Z,95230.00
2023-05-24T00:41:40.295Z,95232.00
2023-05-24T00:42:40.345Z,95232.00
2023-05-24T00:43:40.412Z,95232.00
2023-05-24T00:44:40.472Z,95230.00
2023-05-24T00:45:40.556Z,95230.00
2023-05-24T00:46:40.611Z,95224.00
2023-05-24T00:47:40.592Z,95228.00
2023-05-24T00:48:40.628Z,95224.00
2023-05-24T00:49:40.701Z,95224.00
2023-05-24T00:50:41.072Z,95224.00
2023-05-24T00:51:40.846Z,95224.00
2023-05-24T00:52:40.929Z,95224.00
2023-05-24T00:53:40.984Z,95224.00
2023-05-24T00:54:41.033Z,95222.00
2023-05-24T00:55:41.124Z,95220.00
2023-05-24T00:56:41.106Z,95220.00
2023-05-24T00:57:41.156Z,95220.00
2023-05-24T00:58:41.185Z,95222.00
2023-05-24T00:59:41.221Z,95220.00
2023-05-24T01:00:41.460Z,95219.00
2023-05-24T01:01:41.379Z,95219.00
2023-05-24T01:02:41.451Z,95217.00
2023-05-24T01:03:41.640Z,95217.00
2023-05-24T01:04:41.515Z,95217.00
2023-05-24T01:05:41.615Z,95219.00
2023-05-24T01:06:41.623Z,95219.00
2023-05-24T01:07:41.683Z,95217.00
2023-05-24T01:08:41.765Z,95217.00
2023-05-24T01:09:41.875Z,95217.00
2023-05-24T01:10:42.064Z,95213.00
2023-05-24T01:11:41.968Z,95213.00
2023-05-24T01:12:41.974Z,95215.00
2023-05-24T01:13:42.044Z,95213.00
2023-05-24T01:14:42.139Z,95211.00
2023-05-24T01:15:42.246Z,95209.00
2023-05-24T01:16:42.308Z,95211.00
2023-05-24T01:17:42.423Z,95209.00
2023-05-24T01:18:42.448Z,95207.00
2023-05-24T01:19:42.543Z,95205.00
2023-05-24T01:20:42.966Z,95207.00
2023-05-24T01:21:42.698Z,95207.00
2023-05-24T01:22:42.778Z,95211.00
2023-05-24T01:23:42.853Z,95211.00
2023-05-24T01:24:42.994Z,95213.00
2023-05-24T01:25:43.082Z,95207.00
2023-05-24T01:26:43.135Z,95207.00
2023-05-24T01:27:43.226Z,95207.00
2023-05-24T01:28:43.369Z,95207.00
2023-05-24T01:29:43.463Z,95209.00
2023-05-24T01:30:43.978Z,95205.00
2023-05-24T01:31:43.661Z,95207.00
2023-05-24T01:32:43.763Z,95201.00
2023-05-24T01:33:43.855Z,95203.00
2023-05-24T01:34:43.906Z,95203.00
2023-05-24T01:35:44.042Z,95201.00
2023-05-24T01:36:44.131Z,95201.00
2023-05-24T01:37:44.225Z,95203.00
2023-05-24T01:38:44.336Z,95201.00
2023-05-24T01:39:44.384Z,95201.00
2023-05-24T01:40:44.644Z,95201.00
2023-05-24T01:41:44.537Z,95201.00
2023-05-24T01:42:44.644Z,95205.00
2023-05-24T01:43:44.728Z,95205.00
2023-05-24T01:44:44.841Z,95205.00
2023-05-24T01:45:44.973Z,95207.00
2023-05-24T01:46:45.052Z,95207.00
2023-05-24T01:47:45.198Z,95205.00
2023-05-24T01:48:45.215Z,95205.00
2023-05-24T01:49:45.322Z,95203.00
2023-05-24T01:50:45.359Z,95205.00
2023-05-24T01:51:45.388Z,95205.00
2023-05-24T01:52:45.421Z,95203.00
2023-05-24T01:53:45.463Z,95203.00
2023-05-24T01:54:45.563Z,95203.00
2023-05-24T01:55:45.571Z,95203.00
2023-05-24T01:56:45.602Z,95207.00
2023-05-24T01:57:45.671Z,95207.00
2023-05-24T01:58:45.674Z,95207.00
2023-05-24T01:59:45.733Z,95207.00
2023-05-24T02:02:12.536Z,95201.00
2023-05-24T02:03:05.768Z,95201.00
2023-05-24T02:04:05.557Z,95201.00
2023-05-24T02:05:05.683Z,95205.00
2023-05-24T02:06:05.663Z,95203.00
2023-05-24T02:07:05.560Z,95199.00
2023-05-24T02:08:05.599Z,95203.00
2023-05-24T02:09:05.689Z,95201.00
2023-05-24T02:10:05.516Z,95201.00
2023-05-24T02:11:05.625Z,95197.00
2023-05-24T02:12:05.513Z,95195.00
2023-05-24T02:13:05.559Z,95195.00
2023-05-24T02:14:05.762Z,95197.00
2023-05-24T02:15:06.105Z,95197.00
2023-05-24T02:16:05.806Z,95191.00
2023-05-24T02:17:05.761Z,95195.00
2023-05-24T02:18:05.605Z,95191.00
2023-05-24T02:19:05.823Z,95189.00
2023-05-24T02:20:05.912Z,95191.00
2023-05-24T02:21:06.157Z,95189.00
2023-05-24T02:22:05.811Z,95193.00
2023-05-24T02:23:05.759Z,95193.00
2023-05-24T02:24:06.040Z,95193.00
2023-05-24T02:25:05.864Z,95193.00
2023-05-24T02:26:06.763Z,95193.00
2023-05-24T02:27:05.856Z,95191.00
2023-05-24T02:28:06.063Z,95193.00
2023-05-24T02:29:06.023Z,95189.00
2023-05-24T02:30:06.186Z,95187.00
2023-05-24T02:31:06.301Z,95185.00
2023-05-24T02:32:06.075Z,95187.00
2023-05-24T02:33:06.148Z,95189.00
2023-05-24T02:34:06.104Z,95187.00
2023-05-24T02:35:06.097Z,95185.00
2023-05-24T02:36:06.084Z,95185.00
2023-05-24T02:37:06.156Z,95185.00
2023-05-24T02:38:06.220Z,95185.00
2023-05-24T02:39:06.270Z,95183.00
2023-05-24T02:40:06.296Z,95183.00
2023-05-24T02:41:06.350Z,95187.00
2023-05-24T02:42:06.270Z,95183.00
2023-05-24T02:43:06.482Z,95187.00
2023-05-24T02:44:06.382Z,95183.00
2023-05-24T02:45:06.315Z,95187.00
2023-05-24T02:46:06.448Z,95185.00
2023-05-24T02:47:06.383Z,95183.00
2023-05-24T02:48:06.652Z,95185.00
2023-05-24T02:49:06.597Z,95181.00
2023-05-24T02:50:06.461Z,95183.00
2023-05-24T02:51:06.860Z,95179.00
2023-05-24T02:52:06.563Z,95179.00
2023-05-24T02:53:06.508Z,95179.00
2023-05-24T02:54:06.826Z,95179.00
2023-05-24T02:55:06.782Z,95183.00
2023-05-24T02:56:06.793Z,95185.00
2023-05-24T02:57:06.968Z,95181.00
2023-05-24T02:58:06.827Z,95181.00
2023-05-24T02:59:06.923Z,95181.00
2023-05-24T03:00:06.925Z,95181.00
2023-05-24T03:01:07.249Z,95181.00
2023-05-24T03:02:07.017Z,95183.00
2023-05-24T03:03:07.121Z,95181.00
2023-05-24T03:04:07.218Z,95181.00
2023-05-24T03:05:07.136Z,95183.00
2023-05-24T03:06:07.012Z,95185.00
2023-05-24T03:07:07.091Z,95189.00
2023-05-24T03:08:07.071Z,95185.00
2023-05-24T03:09:07.411Z,95187.00
2023-05-24T03:10:07.489Z,95187.00
2023-05-24T03:11:07.374Z,95185.00
2023-05-24T03:12:07.216Z,95187.00
2023-05-24T03:13:07.216Z,95183.00
2023-05-24T03:14:07.094Z,95187.00
2023-05-24T03:15:07.133Z,95185.00
2023-05-24T03:16:07.144Z,95189.00
2023-05-24T03:17:07.205Z,95189.00
2023-05-24T03:18:07.363Z,95187.00
2023-05-24T03:19:09.787Z,95187.00
2023-05-24T03:20:07.638Z,95183.00
2023-05-24T03:21:07.138Z,95189.00
2023-05-24T03:22:07.308Z,95185.00
2023-05-24T03:23:06.979Z,95189.00
2023-05-24T03:24:06.950Z,95189.00
2023-05-24T03:25:06.957Z,95189.00
2023-05-24T03:26:07.041Z,95189.00
2023-05-24T03:27:07.108Z,95191.00
2023-05-24T03:28:07.006Z,95189.00
2023-05-24T03:29:06.770Z,95185.00
2023-05-24T03:30:06.984Z,95189.00
2023-05-24T03:31:06.932Z,95187.00
2023-05-24T03:32:06.827Z,95189.00
2023-05-24T03:33:06.799Z,95185.00
2023-05-24T03:34:06.688Z,95189.00
2023-05-24T03:35:06.763Z,95187.00
2023-05-24T03:36:06.920Z,95187.00
2023-05-24T03:37:06.706Z,95185.00
2023-05-24T03:38:06.668Z,95187.00
2023-05-24T03:39:06.734Z,95183.00
2023-05-24T03:40:06.641Z,95187.00
2023-05-24T03:41:06.820Z,95189.00
2023-05-24T03:42:06.808Z,95191.00
2023-05-24T03:43:06.822Z,95187.00
2023-05-24T03:44:07.205Z,95189.00
2023-05-24T03:45:06.980Z,95189.00
2023-05-24T03:46:06.863Z,95189.00
2023-05-24T03:47:06.888Z,95187.00
2023-05-24T03:48:07.046Z,95189.00
2023-05-24T03:49:06.937Z,95193.00
2023-05-24T03:50:06.999Z,95191.00
2023-05-24T03:51:07.223Z,95189.00
2023-05-24T03:52:07.081Z,95189.00
2023-05-24T03:53:07.144Z,95187.00
2023-05-24T03:54:07.182Z,95191.00
2023-05-24T03:55:07.199Z,95187.00
2023-05-24T03:56:07.355Z,95189.00
2023-05-24T03:57:07.365Z,95185.00
2023-05-24T03:58:07.468Z,95187.00
2023-05-24T03:59:07.611Z,95189.00
2023-05-24T04:00:07.454Z,95193.00
2023-05-24T04:01:07.526Z,95193.00
2023-05-24T04:02:07.631Z,95193.00
2023-05-24T04:03:07.772Z,95197.00
2023-05-24T04:04:07.649Z,95199.00
2023-05-24T04:05:07.671Z,95205.00
2023-05-24T04:06:07.874Z,95205.00
2023-05-24T04:07:07.681Z,95205.00
2023-05-24T04:08:07.728Z,95207.00
2023-05-24T04:09:07.951Z,95205.00
2023-05-24T04:10:08.070Z,95203.00
2023-05-24T04:11:07.995Z,95205.00
2023-05-24T04:12:07.925Z,95209.00
2023-05-24T04:13:08.040Z,95207.00
2023-05-24T04:14:08.068Z,95207.00
2023-05-24T04:15:08.246Z,95207.00
2023-05-24T04:16:08.288Z,95205.00
2023-05-24T04:17:08.284Z,95209.00
2023-05-24T04:18:08.545Z,95207.00
2023-05-24T04:19:08.273Z,95209.00
2023-05-24T04:20:08.874Z,95207.00
2023-05-24T04:21:08.342Z,95205.00
2023-05-24T04:22:08.354Z,95207.00
2023-05-24T04:23:08.454Z,95205.00
2023-05-24T04:24:08.428Z,95203.00
2023-05-24T04:25:08.641Z,95201.00
2023-05-24T04:26:08.475Z,95201.00
2023-05-24T04:27:08.623Z,95203.00
2023-05-24T04:28:08.567Z,95205.00
2023-05-24T04:29:08.681Z,95209.00
2023-05-24T04:30:08.616Z,95203.00
2023-05-24T04:31:09.207Z,95205.00
2023-05-24T04:32:08.774Z,95207.00
2023-05-24T04:33:08.784Z,95211.00
2023-05-24T04:34:08.866Z,95209.00
2023-05-24T04:35:08.823Z,95215.00
2023-05-24T04:36:09.068Z,95213.00
2023-05-24T04:37:09.002Z,95213.00
2023-05-24T04:38:08.914Z,95213.00
2023-05-24T04:39:08.924Z,95211.00
2023-05-24T04:40:08.931Z,95213.00
2023-05-24T04:41:09.239Z,95213.00
2023-05-24T04:42:09.053Z,95213.00
2023-05-24T04:43:09.047Z,95211.00
2023-05-24T04:44:09.153Z,95209.00
2023-05-24T04:45:09.219Z,95213.00
2023-05-24T04:46:09.724Z,95213.00
2023-05-24T04:47:09.407Z,95211.00
2023-05-24T04:48:09.510Z,95209.00
2023-05-24T04:49:09.315Z,95209.00
2023-05-24T04:50:09.503Z,95207.00
2023-05-24T04:51:09.393Z,95211.00
2023-05-24T04:52:09.421Z,95211.00
2023-05-24T04:53:09.624Z,95207.00
2023-05-24T04:54:09.637Z,95207.00
2023-05-24T04:55:09.735Z,95213.00
2023-05-24T04:56:09.644Z,95215.00
2023-05-24T04:57:09.705Z,95213.00
2023-05-24T04:58:10.764Z,95215.00
2023-05-24T04:59:10.087Z,95211.00
2023-05-24T05:00:10.010Z,95217.00
2023-05-24T05:01:09.903Z,95219.00
2023-05-24T05:02:10.045Z,95213.00
2023-05-24T05:03:10.101Z,95215.00
2023-05-24T05:04:10.215Z,95213.00
2023-05-24T05:05:10.199Z,95217.00
2023-05-24T05:06:10.402Z,95217.00
2023-05-24T05:07:10.345Z,95222.00
2023-05-24T05:08:10.292Z,95219.00
2023-05-24T05:09:10.218Z,95220.00
2023-05-24T05:10:10.920Z,95217.00
2023-05-24T05:11:10.451Z,95217.00
2023-05-24T05:12:10.950Z,95220.00
2023-05-24T05:13:10.495Z,95217.00
2023-05-24T05:14:10.505Z,95215.00
2023-05-24T05:15:10.960Z,95215.00
2023-05-24T05:16:10.653Z,95219.00
2023-05-24T05:17:10.638Z,95217.00
2023-05-24T05:18:10.810Z,95220.00
2023-05-24T05:19:11.199Z,95219.00
2023-05-24T05:20:11.754Z,95219.00
2023-05-24T05:21:11.177Z,95219.00
2023-05-24T05:22:11.092Z,95217.00
2023-05-24T05:23:11.284Z,95220.00
2023-05-24T05:24:11.653Z,95219.00
2023-05-24T05:25:11.375Z,95219.00
2023-05-24T05:26:11.320Z,95219.00
2023-05-24T05:27:12.769Z,95215.00
2023-05-24T05:28:11.804Z,95219.00
2023-05-24T05:29:11.516Z,95215.00
2023-05-24T05:30:11.856Z,95213.00
2023-05-24T05:31:11.895Z,95211.00
2023-05-24T05:32:11.708Z,95213.00
2023-05-24T05:33:11.773Z,95217.00
2023-05-24T05:34:12.174Z,95217.00
2023-05-24T05:35:13.076Z,95215.00
2023-05-24T05:36:12.179Z,95217.00
2023-05-24T05:37:21.131Z,95217.00
2023-05-24T05:38:12.167Z,95220.00
2023-05-24T05:39:13.677Z,95217.00
2023-05-24T05:40:11.907Z,95215.00
2023-05-24T05:41:11.517Z,95213.00
2023-05-24T05:42:14.915Z,95211.00
2023-05-24T05:44:31.910Z,95213.00
2023-05-24T05:45:30.690Z,95209.00
2023-05-24T05:46:32.012Z,95211.00
2023-05-24T05:47:31.381Z,95207.00
2023-05-24T05:48:31.565Z,95211.00
2023-05-24T05:52:09.864Z,95209.00
2023-05-24T05:53:13.519Z,95207.00
2023-05-24T05:54:25.550Z,95209.00
2023-05-24T06:00:46.364Z,95207.00
2023-05-24T06:25:56.883Z,95203.00
2023-05-24T06:37:43.429Z,95203.00
2023-05-24T06:46:37.602Z,95201.00
2023-05-24T06:49:18.180Z,95203.00
2023-05-24T06:53:53.952Z,95205.00
2023-05-24T06:56:26.844Z,95207.00
2023-05-24T06:57:27.651Z,95213.00
2023-05-24T06:58:27.354Z,95215.00
2023-05-24T07:00:51.210Z,95217.00
2023-05-24T07:03:07.454Z,95211.00
2023-05-24T07:04:08.765Z,95211.00
2023-05-24T07:11:47.711Z,95209.00
2023-05-24T07:14:09.516Z,95209.00
2023-05-24T07:32:15.318Z,95203.00
2023-05-24T07:34:29.909Z,95199.00
2023-05-24T07:38:22.648Z,95199.00
2023-05-24T07:39:13.601Z,95205.00
2023-05-24T07:40:13.229Z,95199.00
2023-05-24T07:41:10.242Z,95199.00
2023-05-24T07:42:10.131Z,95193.00
2023-05-24T07:43:09.959Z,95197.00
2023-05-24T07:44:11.536Z,95197.00
2023-05-24T07:45:10.165Z,95195.00
2023-05-24T07:47:11.660Z,95191.00
2023-05-24T07:49:09.831Z,95189.00
2023-05-24T07:50:17.693Z,95185.00
2023-05-24T07:51:09.966Z,95191.00
2023-05-24T07:52:10.988Z,95191.00
2023-05-24T07:53:10.268Z,95191.00
2023-05-24T07:55:36.966Z,95195.00
2023-05-24T07:56:46.886Z,95199.00
2023-05-24T07:57:29.815Z,95203.00
2023-05-24T07:59:52.185Z,95197.00
2023-05-24T08:06:23.847Z,95193.00
2023-05-24T08:08:40.714Z,95191.00
2023-05-24T08:09:40.903Z,95189.00
2023-05-24T08:10:40.775Z,95197.00
2023-05-24T08:11:41.018Z,95191.00
2023-05-24T08:12:40.861Z,95191.00
2023-05-24T08:13:41.734Z,95189.00
2023-05-24T08:14:41.884Z,95189.00
2023-05-24T08:17:14.208Z,95189.00
2023-05-24T08:18:00.863Z,95185.00
2023-05-24T08:19:00.528Z,95189.00
2023-05-24T08:20:02.606Z,95187.00
2023-05-24T08:21:00.743Z,95189.00
2023-05-24T08:22:02.597Z,95187.00
2023-05-24T08:23:01.347Z,95183.00
2023-05-24T08:26:38.836Z,95187.00
2023-05-24T08:27:39.624Z,95197.00
2023-05-24T08:28:40.542Z,95185.00
2023-05-24T08:29:39.840Z,95185.00
2023-05-24T08:30:39.886Z,95187.00
2023-05-24T08:31:40.693Z,95187.00
2023-05-24T08:32:41.174Z,95185.00
2023-05-24T08:33:40.687Z,95191.00
2023-05-24T08:37:18.868Z,95185.00
2023-05-24T08:38:20.693Z,95181.00
2023-05-24T08:39:20.394Z,95181.00
2023-05-24T08:40:20.810Z,95177.00
2023-05-24T08:42:04.899Z,95183.00
2023-05-24T08:42:26.733Z,95181.00
2023-05-24T08:43:19.582Z,95187.00
2023-05-24T08:44:19.492Z,95183.00
2023-05-24T08:45:19.951Z,95197.00
2023-05-24T08:46:19.467Z,95185.00
2023-05-24T08:47:19.590Z,95183.00
2023-05-24T08:48:19.652Z,95185.00
2023-05-24T08:49:19.516Z,95177.00
2023-05-24T08:50:19.882Z,95185.00
2023-05-24T08:51:20.736Z,95191.00
2023-05-24T08:52:19.623Z,95181.00
2023-05-24T08:53:21.548Z,95183.00
2023-05-24T08:54:20.363Z,95183.00
2023-05-24T08:55:19.760Z,95177.00
2023-05-24T08:56:20.111Z,95183.00
2023-05-24T08:57:20.240Z,95183.00
2023-05-24T08:58:19.941Z,95181.00
2023-05-24T09:00:39.516Z,95187.00
2023-05-24T09:01:39.645Z,95175.00
2023-05-24T09:02:39.835Z,95175.00
2023-05-24T09:03:39.855Z,95170.00
2023-05-24T09:04:38.204Z,95173.00
2023-05-24T09:05:39.753Z,95177.00
2023-05-24T09:06:39.399Z,95179.00
2023-05-24T09:07:39.855Z,95177.00
2023-05-24T09:08:41.129Z,95175.00
2023-05-24T09:09:40.201Z,95175.00
2023-05-24T09:10:52.830Z,95183.00
2023-05-24T09:11:40.169Z,95175.00
2023-05-24T09:12:40.019Z,95173.00
2023-05-24T09:13:38.680Z,95179.00
2023-05-24T09:14:41.575Z,95183.00
2023-05-24T09:15:40.688Z,95183.00
2023-05-24T09:17:58.629Z,95175.00
2023-05-24T09:20:17.725Z,95177.00
2023-05-24T09:24:05.502Z,95168.00
2023-05-24T09:32:55.800Z,95172.00
2023-05-24T09:33:55.798Z,95166.00
2023-05-24T09:34:58.028Z,95164.00
2023-05-24T09:37:14.070Z,95166.00
2023-05-24T09:39:33.585Z,95172.00
2023-05-24T09:40:34.379Z,95177.00
2023-05-24T09:42:53.410Z,95183.00
2023-05-24T09:43:54.430Z,95172.00
2023-05-24T09:44:55.341Z,95175.00
2023-05-24T09:45:53.798Z,95179.00
2023-05-24T09:46:54.659Z,95170.00
2023-05-24T09:48:00.235Z,95172.00
2023-05-24T09:50:16.830Z,95175.00
2023-05-24T09:51:20.170Z,95170.00
2023-05-24T09:52:16.116Z,95175.00
2023-05-24T09:54:31.523Z,95168.00
2023-05-24T09:56:50.861Z,95173.00
2023-05-24T09:57:51.859Z,95166.00
2023-05-24T09:58:51.814Z,95172.00
2023-05-24T09:59:51.973Z,95172.00
2023-05-24T10:00:52.764Z,95170.00
2023-05-24T10:01:52.962Z,95172.00
2023-05-24T10:02:53.815Z,95170.00
2023-05-24T10:03:52.370Z,95172.00
2023-05-24T10:04:52.501Z,95168.00
2023-05-24T10:05:53.313Z,95172.00
2023-05-24T10:08:11.513Z,95164.00
2023-05-24T10:09:12.017Z,95172.00
2023-05-24T10:10:12.146Z,95175.00
2023-05-24T10:11:43.329Z,95170.00
2023-05-24T10:12:12.886Z,95164.00
2023-05-24T10:13:27.772Z,95172.00
2023-05-24T10:14:11.944Z,95170.00
2023-05-24T10:15:11.558Z,95173.00
2023-05-24T10:16:11.742Z,95168.00
2023-05-24T10:17:11.889Z,95173.00
2023-05-24T10:18:15.788Z,95181.00
2023-05-24T10:19:11.867Z,95170.00
2023-05-24T10:20:15.118Z,95170.00
2023-05-24T10:23:52.935Z,95172.00
2023-05-24T10:24:52.020Z,95175.00
2023-05-24T10:27:10.930Z,95181.00
2023-05-24T10:28:13.496Z,95175.00
2023-05-24T10:29:11.065Z,95181.00
2023-05-24T10:31:30.020Z,95183.00
2023-05-24T10:32:30.914Z,95187.00
2023-05-24T10:33:30.643Z,95189.00
2023-05-24T10:34:30.323Z,95187.00
2023-05-24T10:35:30.244Z,95187.00
2023-05-24T10:36:30.985Z,95189.00
2023-05-24T10:37:30.786Z,95187.00
2023-05-24T10:39:48.838Z,95189.00
2023-05-24T10:40:51.229Z,95193.00
2023-05-24T10:41:49.878Z,95191.00
2023-05-24T10:42:50.306Z,95191.00
2023-05-24T10:44:04.769Z,95197.00
2023-05-24T10:44:49.944Z,95195.00
2023-05-24T10:45:50.056Z,95197.00
2023-05-24T10:46:50.569Z,95197.00
2023-05-24T10:47:50.217Z,95197.00
2023-05-24T10:48:49.727Z,95203.00
2023-05-24T10:49:49.779Z,95205.00
2023-05-24T10:50:49.987Z,95201.00
2023-05-24T10:51:50.317Z,95209.00
2023-05-24T10:52:49.990Z,95215.00
2023-05-24T10:53:50.442Z,95207.00
2023-05-24T10:57:15.449Z,95211.00
2023-05-24T10:58:16.457Z,95211.00
2023-05-24T11:02:03.082Z,95211.00
2023-05-24T11:05:18.005Z,95220.00
2023-05-24T11:12:14.101Z,95222.00
2023-05-24T11:13:18.050Z,95228.00
2023-05-24T11:14:26.111Z,95230.00
2023-05-24T11:15:15.336Z,95226.00
2023-05-24T11:16:18.769Z,95228.00
2023-05-24T11:17:16.164Z,95230.00
2023-05-24T11:19:38.914Z,95232.00
2023-05-24T11:20:37.912Z,95224.00
2023-05-24T11:21:34.831Z,95234.00
2023-05-24T11:27:00.449Z,95232.00
2023-05-24T11:29:21.501Z,95222.00
2023-05-24T11:30:23.752Z,95220.00
2023-05-24T11:31:22.568Z,95222.00
2023-05-24T11:32:26.791Z,95224.00
2023-05-24T11:33:23.129Z,95224.00
2023-05-24T11:34:23.401Z,95226.00
2023-05-24T11:35:22.725Z,95226.00
2023-05-24T11:36:23.793Z,95230.00
2023-05-24T11:37:34.851Z,95232.00
2023-05-24T11:38:25.269Z,95230.00
2023-05-24T11:39:24.040Z,95230.00
2023-05-24T11:40:23.474Z,95230.00
2023-05-24T11:41:23.646Z,95236.00
2023-05-24T11:42:23.264Z,95234.00
2023-05-24T11:43:23.004Z,95234.00
2023-05-24T11:44:22.599Z,95234.00
2023-05-24T11:45:23.476Z,95236.00
2023-05-24T11:46:23.093Z,95238.00
2023-05-24T11:47:23.122Z,95238.00
2023-05-24T11:48:30.848Z,95242.00
2023-05-24T11:49:22.762Z,95240.00
2023-05-24T11:51:41.651Z,95250.00
2023-05-24T11:52:45.026Z,95250.00
2023-05-24T11:53:42.158Z,95248.00
2023-05-24T11:54:43.305Z,95252.00
2023-05-24T11:55:42.424Z,95258.00
2023-05-24T11:56:42.202Z,95256.00
2023-05-24T11:57:55.621Z,95256.00
2023-05-24T11:58:42.119Z,95252.00
2023-05-24T11:59:43.989Z,95252.00
2023-05-24T12:00:44.653Z,95250.00
2023-05-24T12:01:42.382Z,95252.00
2023-05-24T12:02:46.498Z,95254.00
2023-05-24T12:05:01.910Z,95252.00
2023-05-24T12:06:08.777Z,95256.00
2023-05-24T12:07:06.580Z,95244.00
2023-05-24T12:08:03.312Z,95252.00
2023-05-24T12:09:04.853Z,95256.00
2023-05-24T12:10:02.918Z,95254.00
2023-05-24T12:11:02.609Z,95258.00
2023-05-24T12:13:21.718Z,95254.00
2023-05-24T12:14:22.403Z,95256.00
2023-05-24T12:15:22.100Z,95256.00
2023-05-24T12:17:44.316Z,95256.00
2023-05-24T12:18:54.980Z,95258.00
2023-05-24T12:19:48.372Z,95254.00
2023-05-24T12:22:00.479Z,95262.00
2023-05-24T12:23:01.717Z,95267.00
2023-05-24T12:25:20.010Z,95264.00
2023-05-24T12:26:20.998Z,95271.00
2023-05-24T12:27:20.998Z,95269.00
2023-05-24T12:28:20.724Z,95271.00
2023-05-24T12:29:22.626Z,95273.00
2023-05-24T12:30:21.998Z,95277.00
2023-05-24T12:31:20.958Z,95279.00
2023-05-24T12:32:21.203Z,95279.00
2023-05-24T12:34:39.959Z,95285.00
2023-05-24T12:35:40.792Z,95283.00
2023-05-24T12:51:31.589Z,95305.00
2023-05-24T12:52:30.735Z,95307.00
2023-05-24T12:53:35.653Z,95309.00
2023-05-24T12:57:22.928Z,95303.00
2023-05-24T13:13:09.928Z,95299.00
2023-05-24T13:15:40.947Z,95307.00
2023-05-24T13:22:14.446Z,95305.00
2023-05-24T13:26:38.540Z,95303.00
2023-05-24T13:31:42.996Z,95309.00
2023-05-24T13:34:06.547Z,95305.00
2023-05-24T13:35:04.052Z,95305.00
2023-05-24T13:36:04.441Z,95307.00
2023-05-24T13:47:40.765Z,95301.00
2023-05-24T13:48:42.906Z,95301.00
2023-05-24T13:49:39.734Z,95303.00
2023-05-24T13:50:40.215Z,95305.00
2023-05-24T13:54:25.968Z,95303.00
2023-05-24T13:58:09.848Z,95307.00
2023-05-24T14:00:35.279Z,95305.00
2023-05-24T14:02:41.776Z,95309.00
2023-05-24T14:03:41.989Z,95307.00
2023-05-24T14:04:50.067Z,95309.00
2023-05-24T14:05:41.958Z,95309.00
2023-05-24T14:06:43.035Z,95313.00
2023-05-24T14:07:47.268Z,95307.00
2023-05-24T14:08:53.829Z,95307.00
2023-05-24T14:09:53.699Z,95309.00
2023-05-24T14:10:48.243Z,95307.00
2023-05-24T14:11:49.390Z,95309.00
2023-05-24T14:12:42.314Z,95311.00
2023-05-24T14:17:24.508Z,95316.00
2023-05-24T14:18:31.616Z,95313.00
2023-05-24T14:19:31.549Z,95318.00
2023-05-24T14:21:53.988Z,95318.00
2023-05-24T14:25:21.047Z,95316.00
2023-05-24T14:26:34.983Z,95320.00
2023-05-24T14:27:58.308Z,95320.00
2023-05-24T14:29:08.576Z,95320.00
2023-05-24T14:29:58.824Z,95318.00
2023-05-24T14:30:58.812Z,95318.00
2023-05-24T14:31:58.860Z,95318.00
2023-05-24T14:42:13.993Z,95324.00
2023-05-24T14:43:14.879Z,95324.00
2023-05-24T14:50:53.811Z,95326.00
2023-05-24T14:51:52.660Z,95326.00
2023-05-24T14:52:55.129Z,95326.00
2023-05-24T14:53:52.807Z,95330.00
2023-05-24T14:56:16.047Z,95328.00
2023-05-24T14:57:12.950Z,95330.00
2023-05-24T14:58:11.878Z,95328.00
2023-05-24T14:59:12.720Z,95332.00
2023-05-24T15:00:12.272Z,95330.00
2023-05-24T15:01:13.048Z,95330.00
2023-05-24T15:02:13.678Z,95336.00
2023-05-24T15:03:14.227Z,95334.00
2023-05-24T15:04:12.136Z,95334.00
2023-05-24T15:05:12.285Z,95328.00
2023-05-24T15:06:11.972Z,95332.00
2023-05-24T15:07:12.908Z,95330.00
2023-05-24T15:08:11.983Z,95332.00
2023-05-24T15:09:11.053Z,95332.00
2023-05-24T15:10:12.964Z,95332.00
2023-05-24T15:11:11.906Z,95334.00
2023-05-24T15:12:12.083Z,95336.00
2023-05-24T15:13:12.466Z,95334.00
2023-05-24T15:14:11.991Z,95336.00
2023-05-24T15:15:12.607Z,95336.00
2023-05-24T15:16:12.315Z,95334.00
2023-05-24T15:17:12.171Z,95334.00
2023-05-24T15:18:13.102Z,95330.00
2023-05-24T15:19:12.074Z,95330.00
2023-05-24T15:20:11.912Z,95332.00
2023-05-24T15:21:12.763Z,95334.00
2023-05-24T15:22:11.964Z,95332.00
2023-05-24T15:23:12.156Z,95330.00
2023-05-24T15:24:12.007Z,95328.00
2023-05-24T15:27:27.405Z,95328.00
2023-05-24T15:28:28.885Z,95330.00
2023-05-24T15:29:28.206Z,95328.00
2023-05-24T15:30:28.292Z,95328.00
2023-05-24T15:31:28.337Z,95330.00
2023-05-24T15:32:28.197Z,95332.00
2023-05-24T15:33:28.611Z,95328.00
2023-05-24T15:34:28.169Z,95332.00
2023-05-24T15:35:28.179Z,95332.00
2023-05-24T15:36:28.183Z,95332.00
2023-05-24T15:37:28.696Z,95326.00
2023-05-24T15:38:28.101Z,95326.00
2023-05-24T15:39:28.212Z,95322.00
2023-05-24T15:40:28.149Z,95322.00
2023-05-24T15:41:28.259Z,95328.00
2023-05-24T15:42:28.319Z,95324.00
2023-05-24T15:43:28.383Z,95320.00
2023-05-24T15:44:28.054Z,95328.00
2023-05-24T15:45:28.039Z,95324.00
2023-05-24T15:46:28.056Z,95320.00
2023-05-24T15:47:28.224Z,95324.00
2023-05-24T15:48:28.111Z,95322.00
2023-05-24T15:49:28.225Z,95322.00
2023-05-24T15:50:47.569Z,95320.00
2023-05-24T15:52:27.255Z,95322.00
2023-05-24T15:53:28.249Z,95314.00
2023-05-24T15:54:28.260Z,95318.00
2023-05-24T15:55:28.081Z,95314.00
2023-05-24T15:56:28.230Z,95316.00
2023-05-24T15:57:28.878Z,95318.00
2023-05-24T15:58:27.999Z,95318.00
2023-05-24T15:59:28.300Z,95313.00
2023-05-24T16:00:27.981Z,95313.00
2023-05-24T16:01:28.051Z,95313.00
2023-05-24T16:02:28.202Z,95311.00
2023-05-24T16:03:28.117Z,95318.00
2023-05-24T16:04:28.205Z,95311.00
2023-05-24T16:05:28.407Z,95314.00
2023-05-24T16:06:28.325Z,95311.00
2023-05-24T16:07:28.227Z,95314.00
2023-05-24T16:08:28.279Z,95318.00
2023-05-24T16:09:28.182Z,95316.00
2023-05-24T16:10:28.097Z,95316.00
2023-05-24T16:11:28.671Z,95314.00